Main page
METAR-TAF:

METAR-TAF

Airports :

Nouakchott, Mauritania

Nouakchott–Oumtounsy International Airport

latitude: 18-18-36N, longitude: 015-58-11W, elevation: 3 m

Current weather observation

The report was made 37 minutes ago, at 16:30 UTC
Wind 18 kt from the West/Northwest
Temperature 31°C
Humidity 52%
Pressure 1012 hPa
Visibility 10 km or more
Few clouds at a height of 2000 ft

METAR: GQNO 231630Z 30018KT 9999 FEW020 31/20 Q1012 NOSIG

Time: 17:07 (17:07 UTC)

Forecast

The report was made 6 hours and 7 minutes ago, at 11:00 UTC
Forecast valid from 23 at 12 UTC to 24 at 18 UTC
Wind 5 kt from the North/Northwest
Visibility: 7000 m
Becoming
from 23 at 14 UTC to 23 at 17 UTC
Wind 15 kt from the North/Northwest
Probability 30% :
Temporary
from 23 at 15 UTC to 23 at 20 UTC
Visibility: 4000 m
Blowing sand

TAF: GQNO 231100Z 2312/2418 34005KT 7000 NSC BECMG 2314/2317 33015KT PROB30 TEMPO 2315/2320 4000 BLSA

Weather observations and forecasts of more than 4000 airports (METAR and TAF reports).

The available stations are represented by yellow and red dots on the map.

Hover mouse over dot to see the name of the station.

Then click to see weather observations and forecasts.

To change the map : click on the green buttons with a black cross to zoom in, on the green button with a dash to zoom out, or on the green arrows for adjacent maps.


METAR-TAF: